createdAt,value
2023-05-19T00:02:33.882Z,67.75
2023-05-19T00:10:58.497Z,67.94
2023-05-19T00:19:22.419Z,67.76
2023-05-19T00:27:45.446Z,67.85
2023-05-19T00:36:09.028Z,67.95
2023-05-19T00:44:31.983Z,68.02
2023-05-19T00:52:56.146Z,68.05
2023-05-19T01:01:21.720Z,67.87
2023-05-19T01:09:47.174Z,67.96
2023-05-19T01:18:16.756Z,68.02
2023-05-19T01:26:58.503Z,68.09
2023-05-19T01:35:25.073Z,68.00
2023-05-19T01:43:49.688Z,68.02
2023-05-19T01:52:12.702Z,68.12
2023-05-19T02:01:12.587Z,68.16
2023-05-19T02:09:35.760Z,68.21
2023-05-19T02:18:00.314Z,68.09
2023-05-19T02:26:23.981Z,68.11
2023-05-19T02:34:46.896Z,68.28
2023-05-19T02:43:09.820Z,68.22
2023-05-19T02:51:32.842Z,68.37
2023-05-19T02:59:56.381Z,68.36
2023-05-19T03:08:19.867Z,68.38
2023-05-19T03:16:42.892Z,68.33
2023-05-19T03:25:06.114Z,68.37
2023-05-19T03:33:30.052Z,68.40
2023-05-19T03:41:53.455Z,68.64
2023-05-19T03:50:16.590Z,68.42
2023-05-19T03:58:57.990Z,68.54
2023-05-19T04:07:20.913Z,68.58
2023-05-19T04:15:44.047Z,68.64
2023-05-19T04:24:07.253Z,68.67
2023-05-19T04:32:31.120Z,68.64
2023-05-19T04:40:56.471Z,68.77
2023-05-19T04:49:21.060Z,68.89
2023-05-19T04:57:44.116Z,69.06
2023-05-19T05:06:07.886Z,68.98
2023-05-19T05:14:31.191Z,68.99
2023-05-19T05:22:54.561Z,69.11
2023-05-19T05:31:18.309Z,69.09
2023-05-19T05:39:41.512Z,69.08
2023-05-19T05:48:05.035Z,69.14
2023-05-19T05:56:28.751Z,69.24
2023-05-19T06:04:54.218Z,69.27
2023-05-19T06:13:22.362Z,69.33
2023-05-19T06:21:45.674Z,69.35
2023-05-19T06:30:09.857Z,69.33
2023-05-19T06:38:41.548Z,69.28
2023-05-19T06:47:04.794Z,69.36
2023-05-19T06:55:27.907Z,69.28
2023-05-19T07:03:52.537Z,69.42
2023-05-19T07:12:17.390Z,69.31
2023-05-19T07:20:41.127Z,69.64
2023-05-19T07:29:06.702Z,69.59
2023-05-19T07:37:29.603Z,69.70
2023-05-19T07:45:53.646Z,69.51
2023-05-19T07:54:16.843Z,69.58
2023-05-19T08:02:39.963Z,69.59
2023-05-19T08:11:04.784Z,69.74
2023-05-19T08:19:27.862Z,69.83
2023-05-19T08:27:51.103Z,69.57
2023-05-19T08:36:14.219Z,69.66
2023-05-19T08:44:38.243Z,69.78
2023-05-19T08:53:28.965Z,69.73
2023-05-19T09:01:55.715Z,69.80
2023-05-19T09:10:18.854Z,69.81
2023-05-19T09:18:55.041Z,69.75
2023-05-19T09:27:23.076Z,69.87
2023-05-19T09:35:49.219Z,69.92
2023-05-19T09:44:30.065Z,69.73
2023-05-19T09:52:53.860Z,69.93
2023-05-19T10:01:17.380Z,69.86
2023-05-19T10:09:42.914Z,70.00
2023-05-19T10:18:09.261Z,69.77
2023-05-19T10:26:33.834Z,69.85
2023-05-19T10:35:21.637Z,69.85
2023-05-19T10:44:20.031Z,69.76
2023-05-19T10:52:44.787Z,69.88
2023-05-19T11:01:15.805Z,69.83
2023-05-19T11:09:43.368Z,69.82
2023-05-19T11:18:06.502Z,69.83
2023-05-19T11:26:43.751Z,69.84
2023-05-19T11:35:21.980Z,70.02
2023-05-19T11:43:48.494Z,69.87
2023-05-19T11:52:49.049Z,69.82
2023-05-19T12:01:53.964Z,69.81
2023-05-19T12:11:18.198Z,69.85
2023-05-19T12:20:19.358Z,69.79
2023-05-19T12:39:12.612Z,69.94
2023-05-19T12:47:36.564Z,69.81
2023-05-19T12:56:00.099Z,69.88
2023-05-19T13:04:24.878Z,69.91
2023-05-19T13:12:47.952Z,69.68
2023-05-19T13:21:10.936Z,69.66
2023-05-19T13:29:33.910Z,69.87
2023-05-19T13:37:56.925Z,69.82
2023-05-19T13:46:24.370Z,69.75
2023-05-19T13:54:56.884Z,69.69
2023-05-19T14:03:20.181Z,69.67
2023-05-19T14:11:43.469Z,69.62
2023-05-19T14:20:07.497Z,69.49
2023-05-19T14:28:30.438Z,69.69
2023-05-19T14:36:53.576Z,69.79
2023-05-19T14:45:16.659Z,69.48
2023-05-19T14:53:39.637Z,69.72
2023-05-19T15:02:02.526Z,69.55
2023-05-19T15:10:25.476Z,69.77
2023-05-19T15:18:48.434Z,69.69
2023-05-19T15:27:11.817Z,69.66
2023-05-19T15:35:34.729Z,69.79
2023-05-19T15:44:00.538Z,69.89
2023-05-19T15:52:23.826Z,69.83
2023-05-19T16:00:46.821Z,69.70
2023-05-19T16:09:09.778Z,69.81
2023-05-19T16:17:32.873Z,69.67
2023-05-19T16:25:57.453Z,69.83
2023-05-19T16:34:20.447Z,69.82
2023-05-19T16:42:43.347Z,69.91
2023-05-19T16:51:06.513Z,69.67
2023-05-19T16:59:29.412Z,69.64
2023-05-19T17:07:52.410Z,69.76
2023-05-19T17:16:16.075Z,69.60
2023-05-19T17:24:39.776Z,69.92
2023-05-19T17:33:02.765Z,69.82
2023-05-19T17:41:26.461Z,69.74
2023-05-19T17:49:53.023Z,69.96
2023-05-19T17:58:16.263Z,69.95
2023-05-19T18:06:40.910Z,69.86
2023-05-19T18:15:04.138Z,69.86
2023-05-19T18:23:27.057Z,69.81
2023-05-19T18:31:49.974Z,70.01
2023-05-19T18:40:12.995Z,69.89
2023-05-19T18:48:36.193Z,70.07
2023-05-19T18:56:59.662Z,70.02
2023-05-19T19:05:22.640Z,70.05
2023-05-19T19:13:45.904Z,69.84
2023-05-19T19:22:08.872Z,69.95
2023-05-19T19:30:32.297Z,70.04
2023-05-19T19:38:55.455Z,70.29
2023-05-19T19:47:18.352Z,70.20
2023-05-19T19:55:41.397Z,70.23
2023-05-19T20:04:04.583Z,70.14
2023-05-19T20:12:27.648Z,70.36
2023-05-19T20:20:50.885Z,70.44
2023-05-19T20:29:13.805Z,70.42
2023-05-19T20:37:36.826Z,70.39
2023-05-19T20:46:01.445Z,70.60
2023-05-19T20:54:24.677Z,70.63
2023-05-19T21:02:47.702Z,70.80
2023-05-19T21:11:10.661Z,70.81
2023-05-19T21:19:36.479Z,70.84
2023-05-19T21:27:59.412Z,70.86
2023-05-19T21:36:23.374Z,70.94
2023-05-19T21:44:46.584Z,70.76
2023-05-19T21:53:09.493Z,70.90
2023-05-19T22:01:32.348Z,70.94
2023-05-19T22:09:55.591Z,70.97
2023-05-19T22:18:18.590Z,71.19
2023-05-19T22:26:44.249Z,71.18
2023-05-19T22:35:08.512Z,71.11
2023-05-19T22:43:31.524Z,71.40
2023-05-19T22:51:54.368Z,71.25
2023-05-19T23:00:21.006Z,71.25
2023-05-19T23:08:46.835Z,71.19
2023-05-19T23:17:09.900Z,71.24
2023-05-19T23:25:32.997Z,71.32
2023-05-19T23:33:56.077Z,71.43
2023-05-19T23:42:19.084Z,71.42
2023-05-19T23:50:42.060Z,71.52
2023-05-19T23:59:04.968Z,71.56
